Curtis Field
KBBD : now visible

Airfield :











YOU CAN JOIN US ON...

 
LOGIN :

Register | Disclaimer

   EN    FR    IT 

 









Legend :    VFR   Marginal VFR   IFR   Intensive IFR   Very Intensive IFR
Visi :
Ceiling :
>= 8 km
>= 3000ft
5 to 8 km
1000 to 3000 ft
1500m to 5 km
500 to 1000 ft
800 to 1500m
200 to 500 ft
< 800m
< 200 ft
Symbols :   Thunderstorms  Fog  Heavy snow  Heavy precipitations  Wind > 20 kt






- Airport Elevation : 1827 ft


KBBD - Curtis Field

CURRENT METAR :
  • 110555Z AUTO 17009KT 10SM CLR 29/17 A2999 RMK AO2

EXPIRED METARs :
  • 110535Z AUTO 17009G14KT 10SM CLR 29/17 A2999 RMK AO2
  • 110515Z AUTO 17008KT 10SM CLR 29/17 A2999 RMK AO2
  • 110455Z AUTO 17011KT 10SM CLR 30/17 A2999 RMK AO2
  • 110435Z AUTO 16009G14KT 10SM CLR 30/17 A2998 RMK AO2
  • 110415Z AUTO 16009KT 10SM CLR 30/16 A2998 RMK AO2
  • 110355Z AUTO 16008KT 10SM CLR 30/16 A2998 RMK AO2
  • 110335Z AUTO 16007KT 10SM CLR 30/15 A2997 RMK AO2
  • 110315Z AUTO 16010KT 10SM CLR 31/15 A2996 RMK AO2

TAF KBBD
Valid from the 11 at 06:00 until the 12 at 06:00 UTC


110520Z 1106/1206 15010KT P6SM SKC
FM111500 17011G20KT P6SM SCT030
KZHU FIR / North America



MET'MAP, your aeronautical weather chart ! - Copyright ORBIFLY December 2007 - Disclaimer

ORBIFLY MET'MAP TEAM :

Programming & Development : Alexandra Zaïnal
Concept & original design : Baudouin d'Aumeries
Assistance for programming : Marc-Olivier Méhu
Technical & hardware support : Manuel Goepfert

Contact : metmap@orbifly.com




SOURCES & CREDITS :

   NOAA       Earth
Advisory